Viking Sky — LAYU7 — position and weather

sailwx.info

Track history (hours):
 
Tides and Currents Weather Stations Pressure Air Temp Water Temp Dewpoint Dewpoint Depression Visibility Wind Speed Wind Dir Waves Ship Positions

Viking Sky

Last reported at 2019-Sep-17 07:58 UTC. Time now 2019-Sep-17 08:21 UTC.
Position N 55°42' E 012°36'.

Length 228 m; draft 6.7 m.

Type: Passenger vessel. MMSI: 259186000.

Date/timePositionNaut miles runAvg speedWind from/ knotsBaromVisibWave heightAir tempDewpointWater temp
2019-Sep-17 07:58N 55°42' E 012°36'0 0.0
2019-Sep-17 07:28N 55°42' E 012°36'0 0.0
2019-Sep-17 06:58N 55°42' E 012°36'0 0.0
2019-Sep-17 06:28N 55°42' E 012°36'0 0.0
2019-Sep-17 05:58N 55°42' E 012°36'0 0.0
2019-Sep-17 05:28N 55°42' E 012°36'0 0.0
2019-Sep-17 04:58N 55°42' E 012°36'1 2.6
2019-Sep-17 04:30N 55°43' E 012°37'2 4.2
2019-Sep-17 04:00N 55°42' E 012°41'4 8.1
2019-Sep-17 03:30N 55°38' E 012°42'5 9.6
2019-Sep-17 03:00N 55°33' E 012°42'510.1
2019-Sep-17 02:31N 55°28' E 012°42'510.3
2019-Sep-17 02:00N 55°23' E 012°41'510.5
2019-Sep-17 01:30N 55°18' E 012°40'510.8
2019-Sep-17 01:00N 55°13' E 012°40'611.0
2019-Sep-17 00:30N 55°07' E 012°42'510.9
2019-Sep-17 00:00N 55°02' E 012°44'611.7
2019-Sep-16 23:30N 54°56' E 012°45'812.9
2019-Sep-16 22:54N 54°48' E 012°46'2611.7
2019-Sep-16 20:43N 54°30' E 012°15'312.5
2019-Sep-16 20:29N 54°27' E 012°14'612.6
2019-Sep-16 20:00N 54°22' E 012°08'612.3
2019-Sep-16 19:30N 54°16' E 012°05'610.0
2019-Sep-16 18:57N 54°11' E 012°06'0 0.1
2019-Sep-16 18:19N 54°11' E 012°06'0 0.0
2019-Sep-16 15:13N 54°11' E 012°06'0 0.0
2019-Sep-16 14:55N 54°11' E 012°06'0 0.0
2019-Sep-16 14:25N 54°11' E 012°06'0 0.0
2019-Sep-16 13:25N 54°11' E 012°06'0 0.0
2019-Sep-16 11:49N 54°11' E 012°06'0 0.0
2019-Sep-16 11:25N 54°11' E 012°06'0 0.0
2019-Sep-16 09:25N 54°11' E 012°06'0 0.0
2019-Sep-16 08:55N 54°11' E 012°06'0 0.0
2019-Sep-16 08:25N 54°11' E 012°06'0 0.0
2019-Sep-16 06:31N 54°11' E 012°06'0 0.0
2019-Sep-16 05:55N 54°11' E 012°06'0 0.0
2019-Sep-16 05:25N 54°11' E 012°06'0 0.0
2019-Sep-16 04:49N 54°11' E 012°06'0 0.0
2019-Sep-16 04:25N 54°11' E 012°06'0 0.0
2019-Sep-16 03:55N 54°11' E 012°06'0 0.0
2019-Sep-16 01:43N 54°11' E 012°06'0 0.0
2019-Sep-16 01:25N 54°11' E 012°06'0 0.0
2019-Sep-15 22:43N 54°11' E 012°06'0 0.0
2019-Sep-15 22:25N 54°11' E 012°06'0 0.0
2019-Sep-15 21:55N 54°11' E 012°06'0 0.0
2019-Sep-15 21:19N 54°11' E 012°06'0 0.0
2019-Sep-15 19:13N 54°11' E 012°06'0 0.0
2019-Sep-15 18:55N 54°11' E 012°06'1 0.5
2019-Sep-15 16:59N 54°10' E 012°06'3 6.2
2019-Sep-15 16:28N 54°13' E 012°04'14 7.8
2019-Sep-15 14:44N 54°26' E 012°01'3 9.5
2019-Sep-15 14:28N 54°26' E 012°05'5 9.6
2019-Sep-15 14:00N 54°29' E 012°11'611.7
2019-Sep-15 13:30N 54°34' E 012°14'610.7
2019-Sep-15 12:58N 54°39' E 012°20'510.5
2019-Sep-15 12:30N 54°42' E 012°27'6011.2
2019-Sep-15 07:08N 55°06' E 014°03'2613.0
2019-Sep-15 05:11N 55°25' E 014°32'413.5
2019-Sep-15 04:52N 55°28' E 014°38'513.1
2019-Sep-15 04:30N 55°29' E 014°46'611.2
2019-Sep-15 04:00N 55°31' E 014°55'611.2
2019-Sep-15 03:30N 55°33' E 015°04'611.1
2019-Sep-15 03:00N 55°36' E 015°13'511.1
2019-Sep-15 02:30N 55°38' E 015°21'611.3
2019-Sep-15 02:00N 55°41' E 015°31'611.1
2019-Sep-15 01:30N 55°43' E 015°40'611.2
2019-Sep-15 01:00N 55°46' E 015°48'611.4
2019-Sep-15 00:30N 55°49' E 015°56'611.3
2019-Sep-15 00:00N 55°52' E 016°04'611.4
2019-Sep-14 23:30N 55°55' E 016°13'611.8
2019-Sep-14 23:00N 55°59' E 016°22'612.2
2019-Sep-14 22:30N 56°02' E 016°31'612.3
2019-Sep-14 22:00N 56°06' E 016°40'612.5
2019-Sep-14 21:30N 56°09' E 016°49'612.3
2019-Sep-14 21:00N 56°13' E 016°57'612.3
2019-Sep-14 20:30N 56°17' E 017°07'25712.1
2019-Sep-13 23:19N 59°29' E 022°28'614.8
2019-Sep-13 22:56N 59°31' E 022°38'614.8
2019-Sep-13 22:30N 59°34' E 022°49'714.7
2019-Sep-13 22:00N 59°35' E 023°03'714.6
2019-Sep-13 21:30N 59°35' E 023°18'714.5
2019-Sep-13 21:00N 59°31' E 023°30'714.3
2019-Sep-13 20:30N 59°30' E 023°44'815.3
2019-Sep-13 20:00N 59°30' E 023°59'815.6
2019-Sep-13 19:30N 59°30' E 024°14'714.9
2019-Sep-13 19:00N 59°30' E 024°29'612.9
2019-Sep-13 18:30N 59°32' E 024°41'5 9.7
2019-Sep-13 18:00N 59°28' E 024°46'0 1.0
2019-Sep-13 17:30N 59°27' E 024°46'0 0.0
2019-Sep-13 17:00N 59°27' E 024°46'0 0.0
2019-Sep-13 16:30N 59°27' E 024°46'0 0.0
2019-Sep-13 16:00N 59°27' E 024°46'0 0.0
2019-Sep-13 15:30N 59°27' E 024°46'0 0.0
2019-Sep-13 15:00N 59°27' E 024°46'0 0.0
2019-Sep-13 14:30N 59°27' E 024°46'0 0.0
2019-Sep-13 14:00N 59°27' E 024°46'0 0.0
2019-Sep-13 13:30N 59°27' E 024°46'0 0.0
2019-Sep-13 13:00N 59°27' E 024°46'0 0.0
2019-Sep-13 12:30N 59°27' E 024°46'0 0.0
2019-Sep-13 12:00N 59°27' E 024°46'0 0.0
2019-Sep-13 11:30N 59°27' E 024°46'0 0.0
2019-Sep-13 11:00N 59°27' E 024°46'0 0.0
2019-Sep-13 10:27N 59°27' E 024°46'0 0.0
2019-Sep-13 10:00N 59°27' E 024°46'0 0.0
2019-Sep-13 09:30N 59°27' E 024°46'0 0.0
2019-Sep-13 09:00N 59°27' E 024°46'0 0.0
2019-Sep-13 08:30N 59°27' E 024°46'0 0.0
2019-Sep-13 07:57N 59°27' E 024°46'0 0.0
2019-Sep-13 07:30N 59°27' E 024°46'0 0.0
2019-Sep-13 07:00N 59°27' E 024°46'0 0.0
2019-Sep-13 06:30N 59°27' E 024°46'0 0.0
2019-Sep-13 06:00N 59°27' E 024°46'0 0.0
2019-Sep-13 05:30N 59°27' E 024°46'0 0.0
2019-Sep-13 05:00N 59°27' E 024°46'0 0.0
2019-Sep-13 04:30N 59°27' E 024°46'2 4.0
2019-Sep-13 04:00N 59°29' E 024°45'714.4
2019-Sep-13 03:31N 59°36' E 024°40'714.2
2019-Sep-13 03:01N 59°43' E 024°39'1413.7
2019-Sep-13 02:00N 59°50' E 025°02'815.4
2019-Sep-13 01:30N 59°52' E 025°17'815.5
2019-Sep-13 01:00N 59°54' E 025°32'815.5
2019-Sep-13 00:30N 59°55' E 025°47'815.6
2019-Sep-13 00:00N 59°57' E 026°02'815.3
2019-Sep-12 23:30N 59°59' E 026°17'815.7
2019-Sep-12 23:00N 60°01' E 026°32'816.5
2019-Sep-12 22:30N 60°00' E 026°49'816.6
2019-Sep-12 22:00N 60°00' E 027°05'917.1
2019-Sep-12 21:30N 60°05' E 027°20'917.2
2019-Sep-12 21:00N 60°09' E 027°34'816.6
2019-Sep-12 20:30N 60°12' E 027°50'817.0
2019-Sep-12 20:00N 60°10' E 028°07'816.6
2019-Sep-12 19:30N 60°06' E 028°22'816.5
2019-Sep-12 19:00N 60°03' E 028°37'816.7
2019-Sep-12 18:30N 60°03' E 028°54'1117.0
2019-Sep-12 17:50N 60°02' E 029°17'616.5
2019-Sep-12 17:30N 60°02' E 029°28'510.4
2019-Sep-12 17:01N 60°00' E 029°38'611.4
2019-Sep-12 16:30N 59°58' E 029°48'510.9
2019-Sep-12 16:00N 59°56' E 029°58'510.5
2019-Sep-12 15:31N 59°57' E 030°08'2 3.0
2019-Sep-12 15:00N 59°57' E 030°11'0 0.0
2019-Sep-12 14:30N 59°57' E 030°11'0 0.0
2019-Sep-12 14:00N 59°57' E 030°11'0 0.0
2019-Sep-12 13:30N 59°57' E 030°11'0 0.0
2019-Sep-12 13:00N 59°57' E 030°11'0 0.0
2019-Sep-12 12:30N 59°57' E 030°11'0 0.0
2019-Sep-12 12:00N 59°57' E 030°11'0 0.0
2019-Sep-12 11:30N 59°57' E 030°11'0 0.0
2019-Sep-12 10:57N 59°57' E 030°11'0 0.0
2019-Sep-12 10:30N 59°57' E 030°11'0 0.0
2019-Sep-12 10:00N 59°57' E 030°11'0 0.0
2019-Sep-12 09:30N 59°57' E 030°11'0 0.0
2019-Sep-12 09:00N 59°57' E 030°11'0 0.0
2019-Sep-12 08:30N 59°57' E 030°11'0 0.0
2019-Sep-12 08:00N 59°57' E 030°11'0 0.1
2019-Sep-12 07:44N 59°57' E 030°11'0 0.2
2019-Sep-12 07:30N 59°57' E 030°11'0 0.0
2019-Sep-12 07:00N 59°57' E 030°11'0 0.0
2019-Sep-12 06:30N 59°57' E 030°11'0 0.0
2019-Sep-12 06:00N 59°57' E 030°11'0 0.0
2019-Sep-12 05:30N 59°57' E 030°11'0 0.0
2019-Sep-12 05:00N 59°57' E 030°11'0 0.0
2019-Sep-12 04:27N 59°57' E 030°11'0 0.0
2019-Sep-12 04:00N 59°57' E 030°11'0 0.0
2019-Sep-12 03:30N 59°57' E 030°11'0 0.0
2019-Sep-12 03:00N 59°57' E 030°11'0 0.0
2019-Sep-12 02:30N 59°57' E 030°11'0 0.0
2019-Sep-12 02:00N 59°57' E 030°11'0 0.0
2019-Sep-12 01:30N 59°57' E 030°11'0 0.0
2019-Sep-12 01:00N 59°57' E 030°11'0 0.0
2019-Sep-12 00:30N 59°57' E 030°11'0 0.0
2019-Sep-11 23:57N 59°57' E 030°11'0 0.0
2019-Sep-11 23:30N 59°57' E 030°11'0 0.0
2019-Sep-11 23:00N 59°57' E 030°11'0 0.0
2019-Sep-11 22:30N 59°57' E 030°11'0 0.0
2019-Sep-11 22:00N 59°57' E 030°11'0 0.0
2019-Sep-11 21:30N 59°57' E 030°11'0 0.0
2019-Sep-11 21:00N 59°57' E 030°11'0 0.0
2019-Sep-11 20:30N 59°57' E 030°11'0 0.0
2019-Sep-11 20:00N 59°57' E 030°11'0 0.0
2019-Sep-11 19:30N 59°57' E 030°11'0 0.0
2019-Sep-11 19:00N 59°57' E 030°11'0 0.0
2019-Sep-11 18:30N 59°57' E 030°11'0 0.0
2019-Sep-11 18:00N 59°57' E 030°11'0 0.0
2019-Sep-11 17:30N 59°57' E 030°11'0 0.0
2019-Sep-11 17:00N 59°57' E 030°11'0 0.0
2019-Sep-11 16:30N 59°57' E 030°11'0 0.0
2019-Sep-11 16:00N 59°57' E 030°11'0 0.0
2019-Sep-11 15:30N 59°57' E 030°11'0 0.0
2019-Sep-11 15:00N 59°57' E 030°11'0 0.0
2019-Sep-11 14:30N 59°57' E 030°11'0 0.0
2019-Sep-11 14:00N 59°57' E 030°11'0 0.0
2019-Sep-11 13:30N 59°57' E 030°11'0 0.0
2019-Sep-11 13:00N 59°57' E 030°11'0 0.0
2019-Sep-11 12:30N 59°57' E 030°11'0 0.0
2019-Sep-11 12:00N 59°57' E 030°11'0 0.0
2019-Sep-11 11:30N 59°57' E 030°11'0 0.0
2019-Sep-11 11:00N 59°57' E 030°11'0 0.0
2019-Sep-11 10:30N 59°57' E 030°11'0 0.0
2019-Sep-11 10:00N 59°57' E 030°11'0 0.0
2019-Sep-11 09:30N 59°57' E 030°11'0 0.0
2019-Sep-11 09:00N 59°57' E 030°11'0 0.0
2019-Sep-11 08:30N 59°57' E 030°11'0 0.0
2019-Sep-11 08:00N 59°57' E 030°11'0 0.0
2019-Sep-11 07:30N 59°57' E 030°11'0 0.0
2019-Sep-11 07:00N 59°57' E 030°11'0 0.0
2019-Sep-11 06:30N 59°57' E 030°11'0 0.0
2019-Sep-11 06:00N 59°57' E 030°11'0 0.0
2019-Sep-11 05:30N 59°57' E 030°11'0 0.0
2019-Sep-11 05:00N 59°57' E 030°11'0 0.0
2019-Sep-11 04:30N 59°57' E 030°11'0 0.0
2019-Sep-11 04:00N 59°57' E 030°11'1 1.2
2019-Sep-11 03:30N 59°57' E 030°10'5 9.7
2019-Sep-11 03:00N 59°55' E 030°01'510.3
2019-Sep-11 02:30N 59°57' E 029°51'5 9.9
2019-Sep-11 02:00N 59°59' E 029°42'611.3
2019-Sep-11 01:30N 60°01' E 029°32'2011.3
2019-Sep-10 23:41N 60°02' E 028°51'312.5
2019-Sep-10 23:29N 60°02' E 028°46'612.3
2019-Sep-10 23:00N 60°02' E 028°34'612.8
2019-Sep-10 22:30N 60°04' E 028°22'612.7
2019-Sep-10 22:00N 60°08' E 028°11'612.6
2019-Sep-10 21:30N 60°09' E 027°59'612.4
2019-Sep-10 21:00N 60°11' E 027°47'612.3
2019-Sep-10 20:29N 60°08' E 027°36'612.3
2019-Sep-10 20:00N 60°04' E 027°25'612.3
2019-Sep-10 19:30N 60°01' E 027°15'612.5
2019-Sep-10 19:00N 59°58' E 027°04'612.4
2019-Sep-10 18:30N 59°59' E 026°52'815.6
2019-Sep-10 18:01N 59°60' E 026°37'816.8
2019-Sep-10 17:30N 59°57' E 026°21'816.8
2019-Sep-10 17:01N 59°55' E 026°04'816.6
2019-Sep-10 16:31N 59°53' E 025°48'816.3
2019-Sep-10 16:00N 59°52' E 025°32'816.0
2019-Sep-10 15:31N 59°53' E 025°16'816.0
2019-Sep-10 15:01N 59°57' E 025°02'612.9
2019-Sep-10 14:30N 60°02' E 024°56'612.9
2019-Sep-10 14:00N 60°09' E 024°54'1 1.1
2019-Sep-10 13:30N 60°09' E 024°55'0 0.0
2019-Sep-10 13:00N 60°09' E 024°55'0 0.0
2019-Sep-10 12:30N 60°09' E 024°55'0 0.0
2019-Sep-10 12:00N 60°09' E 024°55'0 0.0
2019-Sep-10 11:30N 60°09' E 024°55'0 0.0
2019-Sep-10 10:57N 60°09' E 024°55'0 0.0
2019-Sep-10 10:30N 60°09' E 024°55'0 0.0
2019-Sep-10 10:00N 60°09' E 024°55'0 0.0
2019-Sep-10 09:27N 60°09' E 024°55'0 0.0
2019-Sep-10 09:00N 60°09' E 024°55'0 0.0
2019-Sep-10 08:30N 60°09' E 024°55'0 0.0
2019-Sep-10 08:00N 60°09' E 024°55'0 0.0
2019-Sep-10 07:30N 60°09' E 024°55'0 0.0
2019-Sep-10 07:00N 60°09' E 024°55'0 0.0
2019-Sep-10 06:30N 60°09' E 024°55'0 0.0
2019-Sep-10 06:00N 60°09' E 024°55'0 0.0
2019-Sep-10 05:30N 60°09' E 024°55'1 1.9
2019-Sep-10 05:00N 60°08' E 024°54'612.4
2019-Sep-10 04:30N 60°02' E 024°56'611.2
2019-Sep-10 04:00N 59°56' E 024°56'815.9
2019-Sep-10 03:30N 59°49' E 024°51'815.6
2019-Sep-10 03:01N 59°46' E 024°37'816.5
2019-Sep-10 02:30N 59°43' E 024°21'816.9
2019-Sep-10 02:01N 59°41' E 024°05'816.4
2019-Sep-10 01:30N 59°39' E 023°50'816.0
2019-Sep-10 01:01N 59°36' E 023°35'816.6
2019-Sep-10 00:30N 59°34' E 023°19'816.4
2019-Sep-10 00:01N 59°31' E 023°04'816.8
2019-Sep-09 23:30N 59°27' E 022°49'917.7
2019-Sep-09 23:01N 59°24' E 022°33'917.7
2019-Sep-09 22:30N 59°20' E 022°17'917.6
2019-Sep-09 22:00N 59°19' E 021°60'917.6
2019-Sep-09 21:31N 59°19' E 021°43'917.4
2019-Sep-09 21:00N 59°18' E 021°26'917.3
2019-Sep-09 20:30N 59°18' E 021°09'917.3
2019-Sep-09 20:00N 59°17' E 020°52'2816.7
2019-Sep-09 18:19N 59°15' E 019°57'516.6
2019-Sep-09 18:00N 59°15' E 019°47'816.6
2019-Sep-09 17:30N 59°14' E 019°31'816.7
2019-Sep-09 17:00N 59°14' E 019°14'815.0
2019-Sep-09 16:30N 59°16' E 018°60'510.1
2019-Sep-09 15:58N 59°18' E 018°51'713.5
2019-Sep-09 15:28N 59°23' E 018°41'511.3
2019-Sep-09 15:00N 59°25' E 018°31'3 6.8
2019-Sep-09 14:30N 59°25' E 018°24'3 6.8
2019-Sep-09 14:00N 59°22' E 018°24'510.0
2019-Sep-09 13:30N 59°21' E 018°15'5 9.7
2019-Sep-09 13:00N 59°19' E 018°06'0 0.6
2019-Sep-09 12:29N 59°19' E 018°05'0 0.0
2019-Sep-09 11:59N 59°19' E 018°05'0 0.0
2019-Sep-09 11:29N 59°19' E 018°05'0 0.0
2019-Sep-09 10:59N 59°19' E 018°05'0 0.0
2019-Sep-09 10:29N 59°19' E 018°05'0 0.0
2019-Sep-09 09:59N 59°19' E 018°05'0 0.0
2019-Sep-09 09:29N 59°19' E 018°05'0 0.0
2019-Sep-09 08:59N 59°19' E 018°05'0 0.0
2019-Sep-09 08:29N 59°19' E 018°05'0 0.0
2019-Sep-09 07:59N 59°19' E 018°05'0 0.0
2019-Sep-09 07:29N 59°19' E 018°05'0 0.0
2019-Sep-09 06:59N 59°19' E 018°05'0 0.0
2019-Sep-09 06:29N 59°19' E 018°05'0 0.0
2019-Sep-09 05:59N 59°19' E 018°05'0 0.0
2019-Sep-09 05:29N 59°19' E 018°05'0 0.0
2019-Sep-09 04:59N 59°19' E 018°05'0 0.0
2019-Sep-09 04:29N 59°19' E 018°05'0 0.0
2019-Sep-09 03:59N 59°19' E 018°05'0 0.0
2019-Sep-09 03:29N 59°19' E 018°05'0 0.0
2019-Sep-09 02:59N 59°19' E 018°05'0 0.0
2019-Sep-09 01:59N 59°19' E 018°05'0 0.0
2019-Sep-09 01:29N 59°19' E 018°05'0 0.0
2019-Sep-09 00:59N 59°19' E 018°05'0 0.0
2019-Sep-09 00:29N 59°19' E 018°05'0 0.0
2019-Sep-08 23:59N 59°19' E 018°05'0 0.0
2019-Sep-08 23:29N 59°19' E 018°05'0 0.0
2019-Sep-08 22:59N 59°19' E 018°05'0 0.0
2019-Sep-08 22:29N 59°19' E 018°05'0 0.0
2019-Sep-08 21:59N 59°19' E 018°05'0 0.0
2019-Sep-08 21:29N 59°19' E 018°05'0 0.0
2019-Sep-08 20:59N 59°19' E 018°05'0 0.0
2019-Sep-08 20:29N 59°19' E 018°05'0 0.0
2019-Sep-08 19:59N 59°19' E 018°05'0 0.0
2019-Sep-08 19:29N 59°19' E 018°05'0 0.0
2019-Sep-08 18:59N 59°19' E 018°05'0 0.0
2019-Sep-08 18:29N 59°19' E 018°05'0 0.0
2019-Sep-08 17:56N 59°19' E 018°05'0 0.0
2019-Sep-08 17:29N 59°19' E 018°05'0 0.0
2019-Sep-08 16:59N 59°19' E 018°05'0 0.0
2019-Sep-08 16:29N 59°19' E 018°05'0 0.0
2019-Sep-08 15:59N 59°19' E 018°05'0 0.0
2019-Sep-08 15:29N 59°19' E 018°05'0 0.0
2019-Sep-08 14:59N 59°19' E 018°05'0 0.0
2019-Sep-08 14:29N 59°19' E 018°05'0 0.0
2019-Sep-08 13:53N 59°19' E 018°05'0 0.0
2019-Sep-08 13:29N 59°19' E 018°05'0 0.0
2019-Sep-08 12:59N 59°19' E 018°05'0 0.0
2019-Sep-08 12:29N 59°19' E 018°05'0 0.0
2019-Sep-08 11:59N 59°19' E 018°05'0 0.0
2019-Sep-08 11:29N 59°19' E 018°05'0 0.0
2019-Sep-08 10:59N 59°19' E 018°05'0 0.0
2019-Sep-08 10:29N 59°19' E 018°05'0 0.0
2019-Sep-08 09:59N 59°19' E 018°05'0 0.0
2019-Sep-08 09:29N 59°19' E 018°05'0 0.0
2019-Sep-08 08:59N 59°19' E 018°05'0 0.0
2019-Sep-08 08:29N 59°19' E 018°05'0 0.0
2019-Sep-08 07:59N 59°19' E 018°05'0 0.0
2019-Sep-08 07:29N 59°19' E 018°05'0 0.0
2019-Sep-08 06:59N 59°19' E 018°05'0 0.0
2019-Sep-08 06:29N 59°19' E 018°05'0 0.0
2019-Sep-08 05:59N 59°19' E 018°05'0 0.0
2019-Sep-08 05:29N 59°19' E 018°05'0 0.0
2019-Sep-08 04:59N 59°19' E 018°05'0 0.0
2019-Sep-08 04:29N 59°19' E 018°05'0 0.0
2019-Sep-08 03:59N 59°19' E 018°05'0 0.0
2019-Sep-08 03:29N 59°19' E 018°05'0 0.0
2019-Sep-08 02:59N 59°19' E 018°05'0 0.0
2019-Sep-08 02:29N 59°19' E 018°05'0 0.0
2019-Sep-08 01:59N 59°19' E 018°05'0 0.0
2019-Sep-08 01:29N 59°19' E 018°05'0 0.0
2019-Sep-08 00:59N 59°19' E 018°05'0 0.0
2019-Sep-08 00:29N 59°19' E 018°05'0 0.0
2019-Sep-07 23:59N 59°19' E 018°05'0 0.0
2019-Sep-07 23:29N 59°19' E 018°05'0 0.0
2019-Sep-07 22:59N 59°19' E 018°05'0 0.0
2019-Sep-07 22:29N 59°19' E 018°05'0 0.0
2019-Sep-07 21:59N 59°19' E 018°05'0 0.0
2019-Sep-07 21:29N 59°19' E 018°05'0 0.0
2019-Sep-07 20:59N 59°19' E 018°05'0 0.0
2019-Sep-07 20:26N 59°19' E 018°05'0 0.0
2019-Sep-07 19:59N 59°19' E 018°05'0 0.0
2019-Sep-07 19:29N 59°19' E 018°05'0 0.0
2019-Sep-07 18:59N 59°19' E 018°05'0 0.0
2019-Sep-07 18:29N 59°19' E 018°05'0 0.0
2019-Sep-07 17:59N 59°19' E 018°05'0 0.0
2019-Sep-07 17:29N 59°19' E 018°05'0 0.0
2019-Sep-07 16:59N 59°19' E 018°05'0 0.0
2019-Sep-07 16:26N 59°19' E 018°05'0 0.0
2019-Sep-07 15:47N 59°19' E 018°05'0 0.0
2019-Sep-07 15:29N 59°19' E 018°05'0 0.0
2019-Sep-07 14:53N 59°19' E 018°05'0 0.0
2019-Sep-07 14:29N 59°19' E 018°05'0 0.0
2019-Sep-07 13:59N 59°19' E 018°05'0 0.0
2019-Sep-07 13:29N 59°19' E 018°05'0 0.0
2019-Sep-07 12:59N 59°19' E 018°05'0 0.0
2019-Sep-07 12:29N 59°19' E 018°05'0 0.0
2019-Sep-07 11:59N 59°19' E 018°05'0 0.0
2019-Sep-07 11:29N 59°19' E 018°05'0 0.0
2019-Sep-07 10:59N 59°19' E 018°05'0 0.0
2019-Sep-07 10:29N 59°19' E 018°05'0 0.0
2019-Sep-07 09:59N 59°19' E 018°05'0 0.0
2019-Sep-07 09:29N 59°19' E 018°05'0 0.0
2019-Sep-07 08:59N 59°19' E 018°05'0 0.0
2019-Sep-07 08:29N 59°19' E 018°05'0 0.0
2019-Sep-07 07:59N 59°19' E 018°05'  
Track history (hours):
 
Tides and Currents Weather Stations Pressure Air Temp Water Temp Dewpoint Dewpoint Depression Visibility Wind Speed Wind Dir Waves Ship Positions

Viking Sky

Last reported at 2019-Sep-17 07:58 UTC. Time now 2019-Sep-17 08:21 UTC.
Position N 55°42' E 012°36'.

Length 228 m; draft 6.7 m.

Type: Passenger vessel. MMSI: 259186000.

Date/timePositionNaut miles runAvg speedWind from/ knotsBaromVisibWave heightAir tempDewpointWater temp
2019-Sep-17 07:58N 55°42' E 012°36'0 0.0
2019-Sep-17 07:28N 55°42' E 012°36'0 0.0
2019-Sep-17 06:58N 55°42' E 012°36'0 0.0
2019-Sep-17 06:28N 55°42' E 012°36'0 0.0
2019-Sep-17 05:58N 55°42' E 012°36'0 0.0
2019-Sep-17 05:28N 55°42' E 012°36'0 0.0
2019-Sep-17 04:58N 55°42' E 012°36'1 2.6
2019-Sep-17 04:30N 55°43' E 012°37'2 4.2
2019-Sep-17 04:00N 55°42' E 012°41'4 8.1
2019-Sep-17 03:30N 55°38' E 012°42'5 9.6
2019-Sep-17 03:00N 55°33' E 012°42'510.1
2019-Sep-17 02:31N 55°28' E 012°42'510.3
2019-Sep-17 02:00N 55°23' E 012°41'510.5
2019-Sep-17 01:30N 55°18' E 012°40'510.8
2019-Sep-17 01:00N 55°13' E 012°40'611.0
2019-Sep-17 00:30N 55°07' E 012°42'510.9
2019-Sep-17 00:00N 55°02' E 012°44'611.7
2019-Sep-16 23:30N 54°56' E 012°45'812.9
2019-Sep-16 22:54N 54°48' E 012°46'2611.7
2019-Sep-16 20:43N 54°30' E 012°15'312.5
2019-Sep-16 20:29N 54°27' E 012°14'612.6
2019-Sep-16 20:00N 54°22' E 012°08'612.3
2019-Sep-16 19:30N 54°16' E 012°05'610.0
2019-Sep-16 18:57N 54°11' E 012°06'0 0.1
2019-Sep-16 18:19N 54°11' E 012°06'0 0.0
2019-Sep-16 15:13N 54°11' E 012°06'0 0.0
2019-Sep-16 14:55N 54°11' E 012°06'0 0.0
2019-Sep-16 14:25N 54°11' E 012°06'0 0.0
2019-Sep-16 13:25N 54°11' E 012°06'0 0.0
2019-Sep-16 11:49N 54°11' E 012°06'0 0.0
2019-Sep-16 11:25N 54°11' E 012°06'0 0.0
2019-Sep-16 09:25N 54°11' E 012°06'0 0.0
2019-Sep-16 08:55N 54°11' E 012°06'0 0.0
2019-Sep-16 08:25N 54°11' E 012°06'0 0.0
2019-Sep-16 06:31N 54°11' E 012°06'0 0.0
2019-Sep-16 05:55N 54°11' E 012°06'0 0.0
2019-Sep-16 05:25N 54°11' E 012°06'0 0.0
2019-Sep-16 04:49N 54°11' E 012°06'0 0.0
2019-Sep-16 04:25N 54°11' E 012°06'0 0.0
2019-Sep-16 03:55N 54°11' E 012°06'0 0.0
2019-Sep-16 01:43N 54°11' E 012°06'0 0.0
2019-Sep-16 01:25N 54°11' E 012°06'0 0.0
2019-Sep-15 22:43N 54°11' E 012°06'0 0.0
2019-Sep-15 22:25N 54°11' E 012°06'0 0.0
2019-Sep-15 21:55N 54°11' E 012°06'0 0.0
2019-Sep-15 21:19N 54°11' E 012°06'0 0.0
2019-Sep-15 19:13N 54°11' E 012°06'0 0.0
2019-Sep-15 18:55N 54°11' E 012°06'1 0.5
2019-Sep-15 16:59N 54°10' E 012°06'3 6.2
2019-Sep-15 16:28N 54°13' E 012°04'14 7.8
2019-Sep-15 14:44N 54°26' E 012°01'3 9.5
2019-Sep-15 14:28N 54°26' E 012°05'5 9.6
2019-Sep-15 14:00N 54°29' E 012°11'611.7
2019-Sep-15 13:30N 54°34' E 012°14'610.7
2019-Sep-15 12:58N 54°39' E 012°20'510.5
2019-Sep-15 12:30N 54°42' E 012°27'6011.2
2019-Sep-15 07:08N 55°06' E 014°03'2613.0
2019-Sep-15 05:11N 55°25' E 014°32'413.5
2019-Sep-15 04:52N 55°28' E 014°38'513.1
2019-Sep-15 04:30N 55°29' E 014°46'611.2
2019-Sep-15 04:00N 55°31' E 014°55'611.2
2019-Sep-15 03:30N 55°33' E 015°04'611.1
2019-Sep-15 03:00N 55°36' E 015°13'511.1
2019-Sep-15 02:30N 55°38' E 015°21'611.3
2019-Sep-15 02:00N 55°41' E 015°31'611.1
2019-Sep-15 01:30N 55°43' E 015°40'611.2
2019-Sep-15 01:00N 55°46' E 015°48'611.4
2019-Sep-15 00:30N 55°49' E 015°56'611.3
2019-Sep-15 00:00N 55°52' E 016°04'611.4
2019-Sep-14 23:30N 55°55' E 016°13'611.8
2019-Sep-14 23:00N 55°59' E 016°22'612.2
2019-Sep-14 22:30N 56°02' E 016°31'612.3
2019-Sep-14 22:00N 56°06' E 016°40'612.5
2019-Sep-14 21:30N 56°09' E 016°49'612.3
2019-Sep-14 21:00N 56°13' E 016°57'612.3
2019-Sep-14 20:30N 56°17' E 017°07'25712.1
2019-Sep-13 23:19N 59°29' E 022°28'614.8
2019-Sep-13 22:56N 59°31' E 022°38'614.8
2019-Sep-13 22:30N 59°34' E 022°49'714.7
2019-Sep-13 22:00N 59°35' E 023°03'714.6
2019-Sep-13 21:30N 59°35' E 023°18'714.5
2019-Sep-13 21:00N 59°31' E 023°30'714.3
2019-Sep-13 20:30N 59°30' E 023°44'815.3
2019-Sep-13 20:00N 59°30' E 023°59'815.6
2019-Sep-13 19:30N 59°30' E 024°14'714.9
2019-Sep-13 19:00N 59°30' E 024°29'612.9
2019-Sep-13 18:30N 59°32' E 024°41'5 9.7
2019-Sep-13 18:00N 59°28' E 024°46'0 1.0
2019-Sep-13 17:30N 59°27' E 024°46'0 0.0
2019-Sep-13 17:00N 59°27' E 024°46'0 0.0
2019-Sep-13 16:30N 59°27' E 024°46'0 0.0
2019-Sep-13 16:00N 59°27' E 024°46'0 0.0
2019-Sep-13 15:30N 59°27' E 024°46'0 0.0
2019-Sep-13 15:00N 59°27' E 024°46'0 0.0
2019-Sep-13 14:30N 59°27' E 024°46'0 0.0
2019-Sep-13 14:00N 59°27' E 024°46'0 0.0
2019-Sep-13 13:30N 59°27' E 024°46'0 0.0
2019-Sep-13 13:00N 59°27' E 024°46'0 0.0
2019-Sep-13 12:30N 59°27' E 024°46'0 0.0
2019-Sep-13 12:00N 59°27' E 024°46'0 0.0
2019-Sep-13 11:30N 59°27' E 024°46'0 0.0
2019-Sep-13 11:00N 59°27' E 024°46'0 0.0
2019-Sep-13 10:27N 59°27' E 024°46'0 0.0
2019-Sep-13 10:00N 59°27' E 024°46'0 0.0
2019-Sep-13 09:30N 59°27' E 024°46'0 0.0
2019-Sep-13 09:00N 59°27' E 024°46'0 0.0
2019-Sep-13 08:30N 59°27' E 024°46'0 0.0
2019-Sep-13 07:57N 59°27' E 024°46'0 0.0
2019-Sep-13 07:30N 59°27' E 024°46'0 0.0
2019-Sep-13 07:00N 59°27' E 024°46'0 0.0
2019-Sep-13 06:30N 59°27' E 024°46'0 0.0
2019-Sep-13 06:00N 59°27' E 024°46'0 0.0
2019-Sep-13 05:30N 59°27' E 024°46'0 0.0
2019-Sep-13 05:00N 59°27' E 024°46'0 0.0
2019-Sep-13 04:30N 59°27' E 024°46'2 4.0
2019-Sep-13 04:00N 59°29' E 024°45'714.4
2019-Sep-13 03:31N 59°36' E 024°40'714.2
2019-Sep-13 03:01N 59°43' E 024°39'1413.7
2019-Sep-13 02:00N 59°50' E 025°02'815.4
2019-Sep-13 01:30N 59°52' E 025°17'815.5
2019-Sep-13 01:00N 59°54' E 025°32'815.5
2019-Sep-13 00:30N 59°55' E 025°47'815.6
2019-Sep-13 00:00N 59°57' E 026°02'815.3
2019-Sep-12 23:30N 59°59' E 026°17'815.7
2019-Sep-12 23:00N 60°01' E 026°32'816.5
2019-Sep-12 22:30N 60°00' E 026°49'816.6
2019-Sep-12 22:00N 60°00' E 027°05'917.1
2019-Sep-12 21:30N 60°05' E 027°20'917.2
2019-Sep-12 21:00N 60°09' E 027°34'816.6
2019-Sep-12 20:30N 60°12' E 027°50'817.0
2019-Sep-12 20:00N 60°10' E 028°07'816.6
2019-Sep-12 19:30N 60°06' E 028°22'816.5
2019-Sep-12 19:00N 60°03' E 028°37'816.7
2019-Sep-12 18:30N 60°03' E 028°54'1117.0
2019-Sep-12 17:50N 60°02' E 029°17'616.5
2019-Sep-12 17:30N 60°02' E 029°28'510.4
2019-Sep-12 17:01N 60°00' E 029°38'611.4
2019-Sep-12 16:30N 59°58' E 029°48'510.9
2019-Sep-12 16:00N 59°56' E 029°58'510.5
2019-Sep-12 15:31N 59°57' E 030°08'2 3.0
2019-Sep-12 15:00N 59°57' E 030°11'0 0.0
2019-Sep-12 14:30N 59°57' E 030°11'0 0.0
2019-Sep-12 14:00N 59°57' E 030°11'0 0.0
2019-Sep-12 13:30N 59°57' E 030°11'0 0.0
2019-Sep-12 13:00N 59°57' E 030°11'0 0.0
2019-Sep-12 12:30N 59°57' E 030°11'0 0.0
2019-Sep-12 12:00N 59°57' E 030°11'0 0.0
2019-Sep-12 11:30N 59°57' E 030°11'0 0.0
2019-Sep-12 10:57N 59°57' E 030°11'0 0.0
2019-Sep-12 10:30N 59°57' E 030°11'0 0.0
2019-Sep-12 10:00N 59°57' E 030°11'0 0.0
2019-Sep-12 09:30N 59°57' E 030°11'0 0.0
2019-Sep-12 09:00N 59°57' E 030°11'0 0.0
2019-Sep-12 08:30N 59°57' E 030°11'0 0.0
2019-Sep-12 08:00N 59°57' E 030°11'0 0.1
2019-Sep-12 07:44N 59°57' E 030°11'0 0.2
2019-Sep-12 07:30N 59°57' E 030°11'0 0.0
2019-Sep-12 07:00N 59°57' E 030°11'0 0.0
2019-Sep-12 06:30N 59°57' E 030°11'0 0.0
2019-Sep-12 06:00N 59°57' E 030°11'0 0.0
2019-Sep-12 05:30N 59°57' E 030°11'0 0.0
2019-Sep-12 05:00N 59°57' E 030°11'0 0.0
2019-Sep-12 04:27N 59°57' E 030°11'0 0.0
2019-Sep-12 04:00N 59°57' E 030°11'0 0.0
2019-Sep-12 03:30N 59°57' E 030°11'0 0.0
2019-Sep-12 03:00N 59°57' E 030°11'0 0.0
2019-Sep-12 02:30N 59°57' E 030°11'0 0.0
2019-Sep-12 02:00N 59°57' E 030°11'0 0.0
2019-Sep-12 01:30N 59°57' E 030°11'0 0.0
2019-Sep-12 01:00N 59°57' E 030°11'0 0.0
2019-Sep-12 00:30N 59°57' E 030°11'0 0.0
2019-Sep-11 23:57N 59°57' E 030°11'0 0.0
2019-Sep-11 23:30N 59°57' E 030°11'0 0.0
2019-Sep-11 23:00N 59°57' E 030°11'0 0.0
2019-Sep-11 22:30N 59°57' E 030°11'0 0.0
2019-Sep-11 22:00N 59°57' E 030°11'0 0.0
2019-Sep-11 21:30N 59°57' E 030°11'0 0.0
2019-Sep-11 21:00N 59°57' E 030°11'0 0.0
2019-Sep-11 20:30N 59°57' E 030°11'0 0.0
2019-Sep-11 20:00N 59°57' E 030°11'0 0.0
2019-Sep-11 19:30N 59°57' E 030°11'0 0.0
2019-Sep-11 19:00N 59°57' E 030°11'0 0.0
2019-Sep-11 18:30N 59°57' E 030°11'0 0.0
2019-Sep-11 18:00N 59°57' E 030°11'0 0.0
2019-Sep-11 17:30N 59°57' E 030°11'0 0.0
2019-Sep-11 17:00N 59°57' E 030°11'0 0.0
2019-Sep-11 16:30N 59°57' E 030°11'0 0.0
2019-Sep-11 16:00N 59°57' E 030°11'0 0.0
2019-Sep-11 15:30N 59°57' E 030°11'0 0.0
2019-Sep-11 15:00N 59°57' E 030°11'0 0.0
2019-Sep-11 14:30N 59°57' E 030°11'0 0.0
2019-Sep-11 14:00N 59°57' E 030°11'0 0.0
2019-Sep-11 13:30N 59°57' E 030°11'0 0.0
2019-Sep-11 13:00N 59°57' E 030°11'0 0.0
2019-Sep-11 12:30N 59°57' E 030°11'0 0.0
2019-Sep-11 12:00N 59°57' E 030°11'0 0.0
2019-Sep-11 11:30N 59°57' E 030°11'0 0.0
2019-Sep-11 11:00N 59°57' E 030°11'0 0.0
2019-Sep-11 10:30N 59°57' E 030°11'0 0.0
2019-Sep-11 10:00N 59°57' E 030°11'0 0.0
2019-Sep-11 09:30N 59°57' E 030°11'0 0.0
2019-Sep-11 09:00N 59°57' E 030°11'0 0.0
2019-Sep-11 08:30N 59°57' E 030°11'0 0.0
2019-Sep-11 08:00N 59°57' E 030°11'0 0.0
2019-Sep-11 07:30N 59°57' E 030°11'0 0.0
2019-Sep-11 07:00N 59°57' E 030°11'0 0.0
2019-Sep-11 06:30N 59°57' E 030°11'0 0.0
2019-Sep-11 06:00N 59°57' E 030°11'0 0.0
2019-Sep-11 05:30N 59°57' E 030°11'0 0.0
2019-Sep-11 05:00N 59°57' E 030°11'0 0.0
2019-Sep-11 04:30N 59°57' E 030°11'0 0.0
2019-Sep-11 04:00N 59°57' E 030°11'1 1.2
2019-Sep-11 03:30N 59°57' E 030°10'5 9.7
2019-Sep-11 03:00N 59°55' E 030°01'510.3
2019-Sep-11 02:30N 59°57' E 029°51'5 9.9
2019-Sep-11 02:00N 59°59' E 029°42'611.3
2019-Sep-11 01:30N 60°01' E 029°32'2011.3
2019-Sep-10 23:41N 60°02' E 028°51'312.5
2019-Sep-10 23:29N 60°02' E 028°46'612.3
2019-Sep-10 23:00N 60°02' E 028°34'612.8
2019-Sep-10 22:30N 60°04' E 028°22'612.7
2019-Sep-10 22:00N 60°08' E 028°11'612.6
2019-Sep-10 21:30N 60°09' E 027°59'612.4
2019-Sep-10 21:00N 60°11' E 027°47'612.3
2019-Sep-10 20:29N 60°08' E 027°36'612.3
2019-Sep-10 20:00N 60°04' E 027°25'612.3
2019-Sep-10 19:30N 60°01' E 027°15'612.5
2019-Sep-10 19:00N 59°58' E 027°04'612.4
2019-Sep-10 18:30N 59°59' E 026°52'815.6
2019-Sep-10 18:01N 59°60' E 026°37'816.8
2019-Sep-10 17:30N 59°57' E 026°21'816.8
2019-Sep-10 17:01N 59°55' E 026°04'816.6
2019-Sep-10 16:31N 59°53' E 025°48'816.3
2019-Sep-10 16:00N 59°52' E 025°32'816.0
2019-Sep-10 15:31N 59°53' E 025°16'816.0
2019-Sep-10 15:01N 59°57' E 025°02'612.9
2019-Sep-10 14:30N 60°02' E 024°56'612.9
2019-Sep-10 14:00N 60°09' E 024°54'1 1.1
2019-Sep-10 13:30N 60°09' E 024°55'0 0.0
2019-Sep-10 13:00N 60°09' E 024°55'0 0.0
2019-Sep-10 12:30N 60°09' E 024°55'0 0.0
2019-Sep-10 12:00N 60°09' E 024°55'0 0.0
2019-Sep-10 11:30N 60°09' E 024°55'0 0.0
2019-Sep-10 10:57N 60°09' E 024°55'0 0.0
2019-Sep-10 10:30N 60°09' E 024°55'0 0.0
2019-Sep-10 10:00N 60°09' E 024°55'0 0.0
2019-Sep-10 09:27N 60°09' E 024°55'0 0.0
2019-Sep-10 09:00N 60°09' E 024°55'0 0.0
2019-Sep-10 08:30N 60°09' E 024°55'0 0.0
2019-Sep-10 08:00N 60°09' E 024°55'0 0.0
2019-Sep-10 07:30N 60°09' E 024°55'0 0.0
2019-Sep-10 07:00N 60°09' E 024°55'0 0.0
2019-Sep-10 06:30N 60°09' E 024°55'0 0.0
2019-Sep-10 06:00N 60°09' E 024°55'0 0.0
2019-Sep-10 05:30N 60°09' E 024°55'1 1.9
2019-Sep-10 05:00N 60°08' E 024°54'612.4
2019-Sep-10 04:30N 60°02' E 024°56'611.2
2019-Sep-10 04:00N 59°56' E 024°56'815.9
2019-Sep-10 03:30N 59°49' E 024°51'815.6
2019-Sep-10 03:01N 59°46' E 024°37'816.5
2019-Sep-10 02:30N 59°43' E 024°21'816.9
2019-Sep-10 02:01N 59°41' E 024°05'816.4
2019-Sep-10 01:30N 59°39' E 023°50'816.0
2019-Sep-10 01:01N 59°36' E 023°35'816.6
2019-Sep-10 00:30N 59°34' E 023°19'816.4
2019-Sep-10 00:01N 59°31' E 023°04'816.8
2019-Sep-09 23:30N 59°27' E 022°49'917.7
2019-Sep-09 23:01N 59°24' E 022°33'917.7
2019-Sep-09 22:30N 59°20' E 022°17'917.6
2019-Sep-09 22:00N 59°19' E 021°60'917.6
2019-Sep-09 21:31N 59°19' E 021°43'917.4
2019-Sep-09 21:00N 59°18' E 021°26'917.3
2019-Sep-09 20:30N 59°18' E 021°09'917.3
2019-Sep-09 20:00N 59°17' E 020°52'2816.7
2019-Sep-09 18:19N 59°15' E 019°57'516.6
2019-Sep-09 18:00N 59°15' E 019°47'816.6
2019-Sep-09 17:30N 59°14' E 019°31'816.7
2019-Sep-09 17:00N 59°14' E 019°14'815.0
2019-Sep-09 16:30N 59°16' E 018°60'510.1
2019-Sep-09 15:58N 59°18' E 018°51'713.5
2019-Sep-09 15:28N 59°23' E 018°41'511.3
2019-Sep-09 15:00N 59°25' E 018°31'3 6.8
2019-Sep-09 14:30N 59°25' E 018°24'3 6.8
2019-Sep-09 14:00N 59°22' E 018°24'510.0
2019-Sep-09 13:30N 59°21' E 018°15'5 9.7
2019-Sep-09 13:00N 59°19' E 018°06'0 0.6
2019-Sep-09 12:29N 59°19' E 018°05'0 0.0
2019-Sep-09 11:59N 59°19' E 018°05'0 0.0
2019-Sep-09 11:29N 59°19' E 018°05'0 0.0
2019-Sep-09 10:59N 59°19' E 018°05'0 0.0
2019-Sep-09 10:29N 59°19' E 018°05'0 0.0
2019-Sep-09 09:59N 59°19' E 018°05'0 0.0
2019-Sep-09 09:29N 59°19' E 018°05'0 0.0
2019-Sep-09 08:59N 59°19' E 018°05'0 0.0
2019-Sep-09 08:29N 59°19' E 018°05'0 0.0
2019-Sep-09 07:59N 59°19' E 018°05'0 0.0
2019-Sep-09 07:29N 59°19' E 018°05'0 0.0
2019-Sep-09 06:59N 59°19' E 018°05'0 0.0
2019-Sep-09 06:29N 59°19' E 018°05'0 0.0
2019-Sep-09 05:59N 59°19' E 018°05'0 0.0
2019-Sep-09 05:29N 59°19' E 018°05'0 0.0
2019-Sep-09 04:59N 59°19' E 018°05'0 0.0
2019-Sep-09 04:29N 59°19' E 018°05'0 0.0
2019-Sep-09 03:59N 59°19' E 018°05'0 0.0
2019-Sep-09 03:29N 59°19' E 018°05'0 0.0
2019-Sep-09 02:59N 59°19' E 018°05'0 0.0
2019-Sep-09 01:59N 59°19' E 018°05'0 0.0
2019-Sep-09 01:29N 59°19' E 018°05'0 0.0
2019-Sep-09 00:59N 59°19' E 018°05'0 0.0
2019-Sep-09 00:29N 59°19' E 018°05'0 0.0
2019-Sep-08 23:59N 59°19' E 018°05'0 0.0
2019-Sep-08 23:29N 59°19' E 018°05'0 0.0
2019-Sep-08 22:59N 59°19' E 018°05'0 0.0
2019-Sep-08 22:29N 59°19' E 018°05'0 0.0
2019-Sep-08 21:59N 59°19' E 018°05'0 0.0
2019-Sep-08 21:29N 59°19' E 018°05'0 0.0
2019-Sep-08 20:59N 59°19' E 018°05'0 0.0
2019-Sep-08 20:29N 59°19' E 018°05'0 0.0
2019-Sep-08 19:59N 59°19' E 018°05'0 0.0
2019-Sep-08 19:29N 59°19' E 018°05'0 0.0
2019-Sep-08 18:59N 59°19' E 018°05'0 0.0
2019-Sep-08 18:29N 59°19' E 018°05'0 0.0
2019-Sep-08 17:56N 59°19' E 018°05'0 0.0
2019-Sep-08 17:29N 59°19' E 018°05'0 0.0
2019-Sep-08 16:59N 59°19' E 018°05'0 0.0
2019-Sep-08 16:29N 59°19' E 018°05'0 0.0
2019-Sep-08 15:59N 59°19' E 018°05'0 0.0
2019-Sep-08 15:29N 59°19' E 018°05'0 0.0
2019-Sep-08 14:59N 59°19' E 018°05'0 0.0
2019-Sep-08 14:29N 59°19' E 018°05'0 0.0
2019-Sep-08 13:53N 59°19' E 018°05'0 0.0
2019-Sep-08 13:29N 59°19' E 018°05'0 0.0
2019-Sep-08 12:59N 59°19' E 018°05'0 0.0
2019-Sep-08 12:29N 59°19' E 018°05'0 0.0
2019-Sep-08 11:59N 59°19' E 018°05'0 0.0
2019-Sep-08 11:29N 59°19' E 018°05'0 0.0
2019-Sep-08 10:59N 59°19' E 018°05'0 0.0
2019-Sep-08 10:29N 59°19' E 018°05'0 0.0
2019-Sep-08 09:59N 59°19' E 018°05'0 0.0
2019-Sep-08 09:29N 59°19' E 018°05'0 0.0
2019-Sep-08 08:59N 59°19' E 018°05'0 0.0
2019-Sep-08 08:29N 59°19' E 018°05'0 0.0
2019-Sep-08 07:59N 59°19' E 018°05'0 0.0
2019-Sep-08 07:29N 59°19' E 018°05'0 0.0
2019-Sep-08 06:59N 59°19' E 018°05'0 0.0
2019-Sep-08 06:29N 59°19' E 018°05'0 0.0
2019-Sep-08 05:59N 59°19' E 018°05'0 0.0
2019-Sep-08 05:29N 59°19' E 018°05'0 0.0
2019-Sep-08 04:59N 59°19' E 018°05'0 0.0
2019-Sep-08 04:29N 59°19' E 018°05'0 0.0
2019-Sep-08 03:59N 59°19' E 018°05'0 0.0
2019-Sep-08 03:29N 59°19' E 018°05'0 0.0
2019-Sep-08 02:59N 59°19' E 018°05'0 0.0
2019-Sep-08 02:29N 59°19' E 018°05'0 0.0
2019-Sep-08 01:59N 59°19' E 018°05'0 0.0
2019-Sep-08 01:29N 59°19' E 018°05'0 0.0
2019-Sep-08 00:59N 59°19' E 018°05'0 0.0
2019-Sep-08 00:29N 59°19' E 018°05'0 0.0
2019-Sep-07 23:59N 59°19' E 018°05'0 0.0
2019-Sep-07 23:29N 59°19' E 018°05'0 0.0
2019-Sep-07 22:59N 59°19' E 018°05'0 0.0
2019-Sep-07 22:29N 59°19' E 018°05'0 0.0
2019-Sep-07 21:59N 59°19' E 018°05'0 0.0
2019-Sep-07 21:29N 59°19' E 018°05'0 0.0
2019-Sep-07 20:59N 59°19' E 018°05'0 0.0
2019-Sep-07 20:26N 59°19' E 018°05'0 0.0
2019-Sep-07 19:59N 59°19' E 018°05'0 0.0
2019-Sep-07 19:29N 59°19' E 018°05'0 0.0
2019-Sep-07 18:59N 59°19' E 018°05'0 0.0
2019-Sep-07 18:29N 59°19' E 018°05'0 0.0
2019-Sep-07 17:59N 59°19' E 018°05'0 0.0
2019-Sep-07 17:29N 59°19' E 018°05'0 0.0
2019-Sep-07 16:59N 59°19' E 018°05'0 0.0
2019-Sep-07 16:26N 59°19' E 018°05'0 0.0
2019-Sep-07 15:47N 59°19' E 018°05'0 0.0
2019-Sep-07 15:29N 59°19' E 018°05'0 0.0
2019-Sep-07 14:53N 59°19' E 018°05'0 0.0
2019-Sep-07 14:29N 59°19' E 018°05'0 0.0
2019-Sep-07 13:59N 59°19' E 018°05'0 0.0
2019-Sep-07 13:29N 59°19' E 018°05'0 0.0
2019-Sep-07 12:59N 59°19' E 018°05'0 0.0
2019-Sep-07 12:29N 59°19' E 018°05'0 0.0
2019-Sep-07 11:59N 59°19' E 018°05'0 0.0
2019-Sep-07 11:29N 59°19' E 018°05'0 0.0
2019-Sep-07 10:59N 59°19' E 018°05'0 0.0
2019-Sep-07 10:29N 59°19' E 018°05'0 0.0
2019-Sep-07 09:59N 59°19' E 018°05'0 0.0
2019-Sep-07 09:29N 59°19' E 018°05'0 0.0
2019-Sep-07 08:59N 59°19' E 018°05'0 0.0
2019-Sep-07 08:29N 59°19' E 018°05'0 0.0
2019-Sep-07 07:59N 59°19' E 018°05'  

Dump ship's entire track history